createdAt,value
2017-10-07T00:02:36.580Z,8.90
2017-10-07T00:05:48.436Z,8.80
2017-10-07T00:09:00.896Z,8.90
2017-10-07T00:12:12.982Z,8.90
2017-10-07T00:15:23.974Z,8.90
2017-10-07T00:18:35.404Z,8.90
2017-10-07T00:21:45.461Z,8.90
2017-10-07T00:24:57.388Z,9.00
2017-10-07T00:28:07.893Z,9.00
2017-10-07T00:31:19.004Z,9.00
2017-10-07T00:34:31.361Z,9.10
2017-10-07T00:37:44.036Z,9.10
2017-10-07T00:40:54.542Z,9.10
2017-10-07T00:44:05.914Z,9.10
2017-10-07T00:47:18.884Z,9.20
2017-10-07T00:50:30.894Z,9.10
2017-10-07T00:53:44.699Z,9.10
2017-10-07T00:56:55.641Z,9.10
2017-10-07T01:00:06.555Z,9.10
2017-10-07T01:03:17.444Z,9.10
2017-10-07T01:06:27.763Z,9.10
2017-10-07T01:09:40.761Z,9.10
2017-10-07T01:12:51.784Z,9.10
2017-10-07T01:16:03.073Z,9.10
2017-10-07T01:19:15.211Z,9.10
2017-10-07T01:22:26.771Z,9.10
2017-10-07T01:25:39.187Z,9.20
2017-10-07T01:28:52.424Z,9.20
2017-10-07T01:32:03.959Z,9.20
2017-10-07T01:35:14.981Z,9.20
2017-10-07T01:38:26.910Z,9.20
2017-10-07T01:41:41.724Z,9.20
2017-10-07T01:44:52.636Z,9.20
2017-10-07T01:48:04.849Z,9.20
2017-10-07T01:51:16.518Z,9.20
2017-10-07T01:54:27.112Z,9.20
2017-10-07T01:57:38.873Z,9.20
2017-10-07T02:00:49.518Z,9.20
2017-10-07T02:04:00.847Z,9.10
2017-10-07T02:07:11.940Z,9.10
2017-10-07T02:10:22.306Z,9.10
2017-10-07T02:13:34.954Z,9.20
2017-10-07T02:16:46.182Z,9.20
2017-10-07T02:19:57.049Z,9.30
2017-10-07T02:23:09.757Z,9.20
2017-10-07T02:26:19.899Z,9.20
2017-10-07T02:29:31.945Z,9.20
2017-10-07T02:32:44.637Z,9.20
2017-10-07T02:35:56.413Z,9.20
2017-10-07T02:39:07.697Z,9.20
2017-10-07T02:42:21.228Z,9.20
2017-10-07T02:45:33.775Z,9.20
2017-10-07T02:48:44.429Z,9.20
2017-10-07T02:51:57.199Z,9.20
2017-10-07T02:55:08.190Z,9.30
2017-10-07T02:58:19.203Z,9.30
2017-10-07T03:01:35.034Z,9.20
2017-10-07T03:04:45.177Z,9.30
2017-10-07T03:07:56.465Z,9.30
2017-10-07T03:11:08.855Z,9.30
2017-10-07T03:14:19.783Z,9.20
2017-10-07T03:17:31.342Z,9.20
2017-10-07T03:20:42.605Z,9.30
2017-10-07T03:23:54.563Z,9.20
2017-10-07T03:27:05.371Z,9.20
2017-10-07T03:30:15.588Z,9.20
2017-10-07T03:33:27.006Z,9.20
2017-10-07T03:36:38.752Z,9.20
2017-10-07T03:39:50.324Z,9.20
2017-10-07T03:43:02.029Z,9.20
2017-10-07T03:46:12.835Z,9.20
2017-10-07T03:49:23.887Z,9.10
2017-10-07T03:52:35.537Z,9.20
2017-10-07T03:55:46.081Z,9.20
2017-10-07T03:58:57.395Z,9.20
2017-10-07T04:02:09.494Z,9.20
2017-10-07T04:05:19.987Z,9.20
2017-10-07T04:08:33.069Z,9.20
2017-10-07T04:11:45.757Z,9.20
2017-10-07T04:14:56.878Z,9.20
2017-10-07T04:18:06.838Z,9.10
2017-10-07T04:21:17.484Z,9.20
2017-10-07T04:24:28.443Z,9.10
2017-10-07T04:27:38.436Z,9.10
2017-10-07T04:30:49.895Z,9.10
2017-10-07T04:33:59.941Z,9.10
2017-10-07T04:37:10.712Z,9.10
2017-10-07T04:40:20.647Z,9.10
2017-10-07T04:43:32.176Z,9.10
2017-10-07T04:46:42.045Z,9.10
2017-10-07T04:49:51.856Z,9.10
2017-10-07T04:53:01.702Z,9.10
2017-10-07T04:56:12.316Z,9.10
2017-10-07T04:59:22.149Z,9.00
2017-10-07T05:02:33.693Z,9.00
2017-10-07T05:05:43.753Z,9.00
2017-10-07T05:08:54.267Z,9.00
2017-10-07T05:12:05.473Z,9.00
2017-10-07T05:15:16.792Z,9.00
2017-10-07T05:18:27.749Z,9.00
2017-10-07T05:21:37.970Z,8.90
2017-10-07T05:24:47.861Z,9.00
2017-10-07T05:27:57.702Z,9.00
2017-10-07T05:31:07.523Z,9.00
2017-10-07T05:34:17.364Z,8.90
2017-10-07T05:37:27.233Z,9.00
2017-10-07T05:40:37.797Z,9.00
2017-10-07T05:43:48.488Z,8.90
2017-10-07T05:46:59.189Z,8.90
2017-10-07T05:50:08.981Z,9.00
2017-10-07T05:53:18.929Z,8.90
2017-10-07T05:56:29.643Z,8.90
2017-10-07T05:59:41.114Z,9.00
2017-10-07T06:02:51.228Z,8.90
2017-10-07T06:06:01.219Z,9.00
2017-10-07T06:09:12.894Z,9.00
2017-10-07T06:12:23.731Z,9.00
2017-10-07T06:15:33.573Z,9.00
2017-10-07T06:18:44.078Z,9.00
2017-10-07T06:21:53.936Z,9.00
2017-10-07T06:25:03.873Z,9.00
2017-10-07T06:28:14.478Z,9.00
2017-10-07T06:31:24.377Z,9.00
2017-10-07T06:34:34.172Z,9.00
2017-10-07T06:37:44.888Z,9.00
2017-10-07T06:40:55.568Z,9.00
2017-10-07T06:44:06.334Z,8.90
2017-10-07T06:47:16.179Z,8.90
2017-10-07T06:50:28.914Z,8.90
2017-10-07T06:53:39.000Z,8.90
2017-10-07T06:56:49.892Z,9.00
2017-10-07T07:00:00.593Z,8.90
2017-10-07T07:03:11.775Z,8.80
2017-10-07T07:06:21.541Z,8.80
2017-10-07T07:09:32.342Z,8.90
2017-10-07T07:15:53.722Z,9.00
2017-10-07T07:19:04.358Z,9.10
2017-10-07T07:22:15.141Z,9.30
2017-10-07T07:25:25.493Z,9.20
2017-10-07T07:28:36.229Z,9.30
2017-10-07T07:31:47.238Z,9.30
2017-10-07T07:34:57.481Z,9.30
2017-10-07T07:38:08.771Z,9.30
2017-10-07T07:41:18.882Z,9.30
2017-10-07T07:44:29.523Z,9.30
2017-10-07T07:47:40.127Z,9.30
2017-10-07T07:50:50.751Z,9.50
2017-10-07T07:54:00.721Z,9.50
2017-10-07T07:57:10.522Z,9.40
2017-10-07T08:00:20.828Z,9.50
2017-10-07T08:03:30.836Z,9.50
2017-10-07T08:06:40.657Z,9.40
2017-10-07T08:09:51.352Z,9.50
2017-10-07T08:13:02.965Z,9.40
2017-10-07T08:16:14.118Z,9.40
2017-10-07T08:19:26.151Z,9.30
2017-10-07T08:22:39.697Z,9.30
2017-10-07T08:25:49.755Z,9.30
2017-10-07T08:29:00.338Z,9.30
2017-10-07T08:32:11.795Z,9.30
2017-10-07T08:35:21.855Z,9.30
2017-10-07T08:38:32.619Z,9.40
2017-10-07T08:41:44.298Z,9.50
2017-10-07T08:44:54.134Z,9.50
2017-10-07T08:48:04.878Z,9.50
2017-10-07T08:51:16.448Z,9.60
2017-10-07T08:54:26.386Z,9.60
2017-10-07T08:57:36.151Z,9.70
2017-10-07T09:00:46.909Z,9.90
2017-10-07T09:03:58.121Z,9.90
2017-10-07T09:07:08.829Z,10.00
2017-10-07T09:10:20.736Z,10.20
2017-10-07T09:13:30.978Z,10.10
2017-10-07T09:16:40.746Z,10.20
2017-10-07T09:19:50.549Z,10.20
2017-10-07T09:23:00.287Z,10.20
2017-10-07T09:26:10.165Z,10.20
2017-10-07T09:29:20.051Z,10.10
2017-10-07T09:32:30.766Z,10.10
2017-10-07T09:35:42.178Z,10.20
2017-10-07T09:38:52.048Z,10.20
2017-10-07T09:42:02.297Z,9.70
2017-10-07T09:45:12.368Z,10.10
2017-10-07T09:48:23.632Z,10.00
2017-10-07T09:51:33.812Z,10.00
2017-10-07T09:54:44.535Z,10.10
2017-10-07T09:57:55.381Z,10.20
2017-10-07T10:01:05.546Z,10.20
2017-10-07T10:04:16.020Z,10.20
2017-10-07T10:07:26.554Z,10.30
2017-10-07T10:10:36.483Z,10.30
2017-10-07T10:13:50.985Z,10.30
2017-10-07T10:17:00.976Z,10.40
2017-10-07T10:20:11.865Z,10.30
2017-10-07T10:23:23.513Z,10.40
2017-10-07T10:26:34.226Z,10.30
2017-10-07T10:29:45.104Z,10.40
2017-10-07T10:32:55.899Z,10.40
2017-10-07T10:36:06.764Z,10.40
2017-10-07T10:39:16.627Z,10.50
2017-10-07T10:42:28.382Z,10.60
2017-10-07T10:45:38.232Z,10.60
2017-10-07T10:48:49.896Z,10.50
2017-10-07T10:55:12.629Z,10.50
2017-10-07T10:58:23.243Z,10.60
2017-10-07T11:01:34.688Z,10.70
2017-10-07T11:04:46.285Z,10.70
2017-10-07T11:07:57.765Z,10.70
2017-10-07T11:11:07.942Z,10.70
2017-10-07T11:14:19.168Z,10.70
2017-10-07T11:17:29.183Z,10.70
2017-10-07T11:20:39.065Z,10.70
2017-10-07T11:23:49.629Z,10.70
2017-10-07T11:27:00.181Z,10.70
2017-10-07T11:30:11.192Z,10.80
2017-10-07T11:33:22.456Z,10.90
2017-10-07T11:36:33.151Z,10.80
2017-10-07T11:39:43.178Z,10.90
2017-10-07T11:42:55.040Z,11.10
2017-10-07T11:46:05.552Z,11.10
2017-10-07T11:49:14.801Z,11.20
2017-10-07T11:52:28.007Z,11.30
2017-10-07T11:55:39.516Z,11.30
2017-10-07T11:58:49.604Z,11.30
2017-10-07T12:01:59.524Z,11.20
2017-10-07T12:05:10.253Z,11.10
2017-10-07T12:08:21.351Z,11.10
2017-10-07T12:11:31.890Z,11.00
2017-10-07T12:14:42.459Z,10.90
2017-10-07T12:17:53.246Z,11.00
2017-10-07T12:21:05.714Z,10.90
2017-10-07T12:24:15.698Z,10.80
2017-10-07T12:27:27.284Z,10.80
2017-10-07T12:30:37.406Z,10.80
2017-10-07T12:33:48.968Z,10.90
2017-10-07T12:37:00.049Z,10.90
2017-10-07T12:40:13.765Z,10.90
2017-10-07T12:43:24.990Z,11.00
2017-10-07T12:46:35.257Z,10.90
2017-10-07T12:49:47.184Z,10.90
2017-10-07T12:52:58.306Z,10.80
2017-10-07T12:56:09.565Z,10.70
2017-10-07T12:59:19.898Z,10.70
2017-10-07T13:02:30.605Z,10.70
2017-10-07T13:05:41.244Z,10.70
2017-10-07T13:08:52.733Z,10.70
2017-10-07T13:12:02.538Z,10.70
2017-10-07T13:15:13.484Z,10.60
2017-10-07T13:18:23.304Z,10.60
2017-10-07T13:21:34.143Z,10.50
2017-10-07T13:24:45.464Z,10.50
2017-10-07T13:27:56.479Z,10.60
2017-10-07T13:31:06.334Z,10.60
2017-10-07T13:34:16.021Z,10.50
2017-10-07T13:37:25.940Z,10.60
2017-10-07T13:40:35.937Z,10.60
2017-10-07T13:43:46.667Z,10.60
2017-10-07T13:46:57.551Z,10.50
2017-10-07T13:50:08.366Z,10.60
2017-10-07T13:53:19.491Z,10.50
2017-10-07T13:56:29.981Z,10.50
2017-10-07T13:59:40.097Z,10.50
2017-10-07T14:02:50.888Z,10.50
2017-10-07T14:09:13.250Z,10.40
2017-10-07T14:12:23.975Z,10.40
2017-10-07T14:15:33.883Z,10.40
2017-10-07T14:18:44.700Z,10.40
2017-10-07T14:21:55.458Z,10.40
2017-10-07T14:25:06.158Z,10.40
2017-10-07T14:28:16.168Z,10.40
2017-10-07T14:31:26.087Z,10.40
2017-10-07T14:34:36.842Z,10.30
2017-10-07T14:37:47.465Z,10.50
2017-10-07T14:40:57.366Z,10.60
2017-10-07T14:44:07.298Z,10.50
2017-10-07T14:47:17.253Z,10.70
2017-10-07T14:50:27.923Z,10.80
2017-10-07T14:53:39.325Z,10.90
2017-10-07T14:56:49.471Z,10.80
2017-10-07T15:00:00.467Z,10.90
2017-10-07T15:03:11.636Z,10.60
2017-10-07T15:06:21.820Z,10.60
2017-10-07T15:09:32.980Z,10.60
2017-10-07T15:12:42.857Z,10.60
2017-10-07T15:15:52.875Z,10.50
2017-10-07T15:19:02.715Z,10.50
2017-10-07T15:22:13.306Z,10.60
2017-10-07T15:25:24.161Z,10.50
2017-10-07T15:28:34.684Z,10.50
2017-10-07T15:31:44.684Z,10.50
2017-10-07T15:34:54.575Z,10.40
2017-10-07T15:38:06.027Z,10.40
2017-10-07T15:41:17.115Z,10.20
2017-10-07T15:44:27.920Z,10.20
2017-10-07T15:47:38.836Z,10.10
2017-10-07T15:50:49.561Z,10.10
2017-10-07T15:54:00.375Z,10.10
2017-10-07T16:00:25.293Z,10.10
2017-10-07T16:03:36.096Z,10.10
2017-10-07T16:06:48.789Z,10.20
2017-10-07T16:10:00.369Z,10.10
2017-10-07T16:13:16.881Z,10.10
2017-10-07T16:16:35.703Z,10.10
2017-10-07T16:19:53.147Z,10.10
2017-10-07T16:23:03.915Z,10.10
2017-10-07T16:26:17.408Z,10.00
2017-10-07T16:29:27.776Z,9.90
2017-10-07T16:32:40.341Z,9.90
2017-10-07T16:35:53.432Z,9.90
2017-10-07T16:39:10.388Z,9.90
2017-10-07T16:42:20.653Z,9.80
2017-10-07T16:45:31.576Z,9.70
2017-10-07T16:48:41.543Z,9.70
2017-10-07T16:51:52.497Z,9.70
2017-10-07T16:55:02.583Z,9.70
2017-10-07T16:58:13.611Z,9.60
2017-10-07T17:01:24.874Z,9.60
2017-10-07T17:04:37.141Z,9.50
2017-10-07T17:07:48.481Z,9.50
2017-10-07T17:11:00.134Z,9.50
2017-10-07T17:14:13.205Z,9.30
2017-10-07T17:17:23.720Z,9.30
2017-10-07T17:20:34.449Z,9.40
2017-10-07T17:23:44.710Z,9.30
2017-10-07T17:26:57.794Z,9.30
2017-10-07T17:30:09.283Z,9.40
2017-10-07T17:33:19.905Z,9.30
2017-10-07T17:36:30.572Z,9.20
2017-10-07T17:39:40.425Z,9.20
2017-10-07T17:42:50.361Z,9.20
2017-10-07T17:46:06.122Z,9.10
2017-10-07T17:49:19.353Z,9.10
2017-10-07T17:52:35.722Z,9.10
2017-10-07T17:55:51.768Z,9.00
2017-10-07T17:59:08.013Z,9.00
2017-10-07T18:02:18.733Z,9.00
2017-10-07T18:05:28.625Z,9.00
2017-10-07T18:08:39.400Z,9.10
2017-10-07T18:11:49.426Z,9.10
2017-10-07T18:15:00.339Z,9.00
2017-10-07T18:18:11.440Z,9.10
2017-10-07T18:21:23.054Z,9.00
2017-10-07T18:24:33.235Z,9.00
2017-10-07T18:27:43.478Z,8.90
2017-10-07T18:30:53.885Z,8.90
2017-10-07T18:34:03.849Z,8.90
2017-10-07T18:37:14.588Z,8.90
2017-10-07T18:40:25.454Z,8.80
2017-10-07T18:43:35.366Z,8.80
2017-10-07T18:46:45.458Z,8.70
2017-10-07T18:49:55.764Z,8.60
2017-10-07T18:53:06.468Z,8.70
2017-10-07T18:56:17.659Z,8.70
2017-10-07T18:59:29.180Z,8.70
2017-10-07T19:02:39.531Z,8.60
2017-10-07T19:05:50.714Z,8.70
2017-10-07T19:09:02.261Z,8.80
2017-10-07T19:12:12.847Z,8.80
2017-10-07T19:15:23.537Z,8.80
2017-10-07T19:18:33.456Z,8.90
2017-10-07T19:21:43.965Z,8.90
2017-10-07T19:24:53.989Z,8.80
2017-10-07T19:28:05.601Z,8.90
2017-10-07T19:31:15.700Z,8.90
2017-10-07T19:34:25.602Z,8.90
2017-10-07T19:37:35.421Z,8.90
2017-10-07T19:40:45.485Z,8.90
2017-10-07T19:43:56.226Z,9.00
2017-10-07T19:47:06.934Z,9.00
2017-10-07T19:50:17.732Z,9.00
2017-10-07T19:53:28.483Z,9.00
2017-10-07T19:56:39.152Z,9.00
2017-10-07T19:59:49.259Z,9.00
2017-10-07T20:03:00.293Z,9.00
2017-10-07T20:06:10.797Z,9.00
2017-10-07T20:09:21.656Z,9.00
2017-10-07T20:12:32.430Z,8.90
2017-10-07T20:15:42.314Z,8.90
2017-10-07T20:18:52.026Z,8.80
2017-10-07T20:22:02.068Z,8.70
2017-10-07T20:25:15.233Z,8.70
2017-10-07T20:28:25.790Z,8.70
2017-10-07T20:31:39.650Z,8.60
2017-10-07T20:34:50.235Z,8.60
2017-10-07T20:38:01.182Z,8.60
2017-10-07T20:41:12.128Z,8.50
2017-10-07T20:44:26.026Z,8.60
2017-10-07T20:47:37.375Z,8.50
2017-10-07T20:50:51.021Z,8.60
2017-10-07T20:54:08.078Z,8.60
2017-10-07T20:57:18.259Z,8.50
2017-10-07T21:00:28.998Z,8.50
2017-10-07T21:03:45.384Z,8.60
2017-10-07T21:06:55.954Z,8.50
2017-10-07T21:10:09.101Z,8.50
2017-10-07T21:13:20.286Z,8.40
2017-10-07T21:16:30.290Z,8.40
2017-10-07T21:19:44.611Z,8.40
2017-10-07T21:22:58.317Z,8.40
2017-10-07T21:26:09.105Z,8.40
2017-10-07T21:29:23.000Z,8.40
2017-10-07T21:32:33.698Z,8.40
2017-10-07T21:38:57.337Z,8.30
2017-10-07T21:42:07.279Z,8.30
2017-10-07T21:45:18.272Z,8.30
2017-10-07T21:48:29.440Z,8.20
2017-10-07T21:51:39.739Z,8.20
2017-10-07T21:54:49.969Z,8.30
2017-10-07T21:58:00.272Z,8.20
2017-10-07T22:01:10.994Z,8.30
2017-10-07T22:04:22.577Z,8.20
2017-10-07T22:07:32.477Z,8.20
2017-10-07T22:10:43.393Z,8.20
2017-10-07T22:13:54.125Z,8.10
2017-10-07T22:17:05.429Z,8.20
2017-10-07T22:20:17.172Z,8.20
2017-10-07T22:23:27.383Z,8.20
2017-10-07T22:26:38.230Z,8.20
2017-10-07T22:29:48.965Z,8.10
2017-10-07T22:32:58.949Z,8.10
2017-10-07T22:36:08.894Z,8.20
2017-10-07T22:39:19.493Z,8.10
2017-10-07T22:42:29.522Z,8.10
2017-10-07T22:45:40.566Z,8.20
2017-10-07T22:48:50.930Z,8.20
2017-10-07T22:52:00.899Z,8.20
2017-10-07T22:55:13.122Z,8.20
2017-10-07T22:58:25.578Z,8.20
2017-10-07T23:01:36.529Z,6.90
2017-10-07T23:07:58.546Z,8.20
2017-10-07T23:11:09.633Z,8.20
2017-10-07T23:14:20.027Z,8.10
2017-10-07T23:17:32.404Z,8.20
2017-10-07T23:20:42.210Z,8.10
2017-10-07T23:23:53.636Z,8.30
2017-10-07T23:27:03.771Z,8.20
2017-10-07T23:30:14.510Z,8.20
2017-10-07T23:33:25.226Z,8.20
2017-10-07T23:36:35.048Z,8.20
2017-10-07T23:39:47.014Z,8.30
2017-10-07T23:42:58.069Z,8.20
2017-10-07T23:46:08.189Z,8.20
2017-10-07T23:49:18.070Z,8.30
2017-10-07T23:52:27.854Z,8.30
2017-10-07T23:55:37.901Z,8.30
2017-10-07T23:58:48.833Z,8.30
